createdAt,value
2018-09-08T00:00:05.861Z,25.23
2018-09-08T00:02:34.572Z,28.10
2018-09-08T00:05:03.787Z,28.67
2018-09-08T00:07:38.877Z,25.33
2018-09-08T00:10:09.765Z,23.93
2018-09-08T00:12:38.473Z,28.17
2018-09-08T00:15:12.408Z,24.93
2018-09-08T00:17:46.169Z,28.57
2018-09-08T00:20:21.304Z,26.67
2018-09-08T00:22:55.326Z,27.27
2018-09-08T00:25:30.319Z,28.10
2018-09-08T00:28:04.698Z,25.70
2018-09-08T00:30:33.647Z,27.23
2018-09-08T00:33:02.400Z,29.87
2018-09-08T00:35:31.266Z,28.50
2018-09-08T00:37:59.986Z,27.97
2018-09-08T00:40:29.416Z,29.57
2018-09-08T00:42:59.347Z,27.07
2018-09-08T00:45:28.029Z,27.97
2018-09-08T00:47:57.050Z,29.10
2018-09-08T00:50:26.008Z,26.23
2018-09-08T00:52:54.810Z,27.70
2018-09-08T00:55:23.835Z,26.43
2018-09-08T00:57:52.581Z,31.30
2018-09-08T01:00:21.293Z,29.20
2018-09-08T01:02:49.863Z,29.03
2018-09-08T01:05:18.522Z,32.40
2018-09-08T01:07:47.373Z,29.30
2018-09-08T01:10:16.963Z,27.87
2018-09-08T01:12:45.745Z,28.83
2018-09-08T01:15:14.443Z,30.97
2018-09-08T01:17:43.163Z,28.37
2018-09-08T01:20:11.902Z,28.57
2018-09-08T01:22:40.786Z,29.37
2018-09-08T01:25:09.502Z,27.83
2018-09-08T01:27:38.213Z,28.77
2018-09-08T01:30:07.232Z,33.13
2018-09-08T01:32:35.923Z,29.77
2018-09-08T01:35:04.820Z,37.47
2018-09-08T01:37:33.577Z,32.90
2018-09-08T01:40:02.286Z,39.83
2018-09-08T01:42:31.001Z,33.40
2018-09-08T01:44:59.693Z,35.57
2018-09-08T01:47:28.638Z,34.23
2018-09-08T01:49:57.306Z,32.67
2018-09-08T01:52:27.068Z,34.67
2018-09-08T01:54:55.741Z,34.80
2018-09-08T01:57:24.453Z,33.37
2018-09-08T01:59:53.281Z,33.93
2018-09-08T02:02:22.834Z,33.27
2018-09-08T02:04:51.767Z,34.93
2018-09-08T02:07:20.525Z,36.60
2018-09-08T02:09:50.413Z,35.63
2018-09-08T02:12:19.211Z,37.80
2018-09-08T02:14:47.913Z,36.63
2018-09-08T02:17:17.732Z,37.23
2018-09-08T02:19:46.850Z,37.20
2018-09-08T02:22:15.531Z,34.20
2018-09-08T02:24:44.189Z,35.80
2018-09-08T02:27:12.885Z,35.93
2018-09-08T02:29:41.534Z,36.43
2018-09-08T02:32:11.190Z,36.47
2018-09-08T02:34:39.884Z,38.13
2018-09-08T02:37:08.608Z,37.63
2018-09-08T02:39:37.486Z,36.07
2018-09-08T02:42:06.534Z,35.07
2018-09-08T02:44:35.286Z,41.67
2018-09-08T02:47:03.973Z,35.87
2018-09-08T02:49:44.114Z,37.93
2018-09-08T02:52:11.418Z,37.40
2018-09-08T02:54:38.778Z,38.10
2018-09-08T02:57:06.095Z,35.53
2018-09-08T02:59:33.446Z,34.37
2018-09-08T03:02:00.795Z,38.67
2018-09-08T03:04:28.216Z,42.83
2018-09-08T03:06:55.523Z,41.77
2018-09-08T03:09:22.842Z,40.50
2018-09-08T03:11:50.178Z,40.53
2018-09-08T03:14:17.655Z,42.40
2018-09-08T03:16:44.969Z,39.60
2018-09-08T03:19:12.441Z,39.83
2018-09-08T03:21:40.822Z,41.00
2018-09-08T03:24:09.127Z,42.87
2018-09-08T03:26:37.697Z,42.83
2018-09-08T03:29:05.003Z,42.13
2018-09-08T03:31:33.270Z,42.13
2018-09-08T03:34:00.638Z,42.67
2018-09-08T03:36:28.492Z,44.17
2018-09-08T03:38:55.818Z,46.57
2018-09-08T03:41:23.285Z,47.50
2018-09-08T03:43:50.957Z,43.10
2018-09-08T03:46:18.567Z,43.57
2018-09-08T03:48:46.859Z,47.13
2018-09-08T03:51:14.190Z,46.87
2018-09-08T03:53:41.524Z,48.20
2018-09-08T03:56:09.472Z,50.23
2018-09-08T03:58:36.837Z,53.70
2018-09-08T04:01:04.133Z,58.47
2018-09-08T04:03:32.713Z,59.40
2018-09-08T04:06:01.405Z,59.63
2018-09-08T04:08:30.093Z,60.40
2018-09-08T04:10:58.762Z,53.33
2018-09-08T04:13:27.568Z,58.03
2018-09-08T04:15:56.168Z,53.27
2018-09-08T04:18:24.824Z,52.47
2018-09-08T04:20:53.530Z,55.13
2018-09-08T04:23:22.222Z,53.07
2018-09-08T04:25:51.021Z,55.47
2018-09-08T04:28:19.715Z,54.97
2018-09-08T04:30:48.344Z,53.40
2018-09-08T04:33:17.090Z,54.03
2018-09-08T04:35:45.779Z,54.20
2018-09-08T04:38:14.475Z,52.90
2018-09-08T04:40:44.264Z,53.53
2018-09-08T04:43:15.115Z,51.80
2018-09-08T04:45:44.139Z,49.77
2018-09-08T04:48:12.910Z,54.37
2018-09-08T04:50:42.117Z,47.40
2018-09-08T04:53:10.757Z,52.97
2018-09-08T04:55:39.705Z,50.73
2018-09-08T04:58:08.517Z,53.47
2018-09-08T05:00:37.066Z,52.90
2018-09-08T05:03:05.801Z,50.63
2018-09-08T05:05:34.676Z,50.50
2018-09-08T05:08:04.284Z,53.60
2018-09-08T05:10:33.662Z,54.67
2018-09-08T05:13:02.369Z,53.40
2018-09-08T05:15:31.678Z,56.97
2018-09-08T05:18:00.434Z,55.27
2018-09-08T05:20:29.169Z,59.05
2018-09-08T05:22:57.789Z,62.57
2018-09-08T05:25:26.513Z,61.63
2018-09-08T05:27:55.291Z,59.37
2018-09-08T05:30:24.913Z,63.03
2018-09-08T05:32:53.633Z,65.13
2018-09-08T05:35:22.260Z,74.83
2018-09-08T05:37:51.099Z,71.53
2018-09-08T05:40:19.955Z,73.57
2018-09-08T05:42:48.770Z,71.23
2018-09-08T05:45:17.442Z,72.03
2018-09-08T05:47:46.176Z,72.73
2018-09-08T05:50:14.889Z,67.17
2018-09-08T05:52:43.635Z,63.93
2018-09-08T05:55:12.400Z,59.40
2018-09-08T05:57:41.110Z,58.73
2018-09-08T06:00:10.922Z,55.40
2018-09-08T06:02:39.673Z,53.10
2018-09-08T06:05:08.370Z,49.97
2018-09-08T06:07:37.492Z,51.77
2018-09-08T06:10:06.341Z,50.80
2018-09-08T06:12:36.026Z,47.13
2018-09-08T06:15:04.806Z,48.47
2018-09-08T06:17:33.529Z,42.20
2018-09-08T06:20:02.441Z,45.17
2018-09-08T06:22:31.152Z,41.37
2018-09-08T06:24:59.890Z,36.13
2018-09-08T06:27:28.581Z,39.23
2018-09-08T06:29:57.617Z,41.07
2018-09-08T06:32:26.431Z,37.30
2018-09-08T06:34:56.138Z,38.07
2018-09-08T06:37:25.617Z,35.53
2018-09-08T06:39:54.873Z,32.93
2018-09-08T06:42:24.641Z,30.87
2018-09-08T06:44:55.411Z,32.37
2018-09-08T06:47:24.170Z,31.10
2018-09-08T06:49:52.792Z,29.67
2018-09-08T06:52:21.819Z,30.10
2018-09-08T06:54:50.533Z,31.97
2018-09-08T06:57:19.159Z,35.90
2018-09-08T06:59:47.953Z,31.83
2018-09-08T07:02:16.698Z,29.97
2018-09-08T07:04:45.699Z,32.37
2018-09-08T07:07:14.506Z,34.80
2018-09-08T07:09:44.030Z,30.97
2018-09-08T07:12:12.837Z,27.00
2018-09-08T07:14:42.685Z,28.63
2018-09-08T07:17:12.362Z,29.77
2018-09-08T07:19:41.133Z,26.17
2018-09-08T07:22:09.823Z,29.93
2018-09-08T07:24:38.442Z,27.63
2018-09-08T07:27:07.198Z,28.30
2018-09-08T07:29:35.959Z,38.47
2018-09-08T07:32:04.742Z,33.50
2018-09-08T07:34:33.438Z,37.37
2018-09-08T07:37:03.105Z,45.83
2018-09-08T07:39:31.835Z,34.83
2018-09-08T07:42:01.155Z,39.40
2018-09-08T07:44:29.786Z,42.27
2018-09-08T07:46:58.483Z,34.30
2018-09-08T07:49:29.333Z,33.30
2018-09-08T07:51:58.028Z,38.70
2018-09-08T07:54:26.664Z,36.17
2018-09-08T07:56:55.683Z,37.57
2018-09-08T07:59:25.164Z,46.33
2018-09-08T08:01:54.633Z,35.63
2018-09-08T08:04:23.494Z,35.17
2018-09-08T08:06:52.195Z,32.77
2018-09-08T08:09:21.058Z,33.80
2018-09-08T08:11:49.713Z,29.33
2018-09-08T08:14:19.786Z,31.30
2018-09-08T08:16:48.591Z,34.93
2018-09-08T08:19:17.365Z,32.40
2018-09-08T08:21:46.192Z,34.40
2018-09-08T08:24:15.151Z,27.43
2018-09-08T08:26:43.888Z,28.63
2018-09-08T08:29:12.707Z,29.77
2018-09-08T08:31:41.505Z,31.20
2018-09-08T08:34:10.483Z,26.57
2018-09-08T08:36:39.210Z,26.27
2018-09-08T08:39:09.065Z,28.67
2018-09-08T08:41:37.798Z,28.77
2018-09-08T08:44:06.507Z,26.33
2018-09-08T08:46:35.351Z,24.20
2018-09-08T08:49:04.579Z,23.03
2018-09-08T08:52:43.221Z,23.67
2018-09-08T08:55:10.552Z,20.87
2018-09-08T08:57:40.368Z,23.57
2018-09-08T09:00:09.115Z,21.23
2018-09-08T09:02:37.821Z,19.30
2018-09-08T09:05:06.518Z,20.77
2018-09-08T09:07:35.467Z,20.07
2018-09-08T09:10:03.957Z,19.30
2018-09-08T09:12:32.844Z,19.87
2018-09-08T09:15:02.011Z,21.67
2018-09-08T09:17:30.449Z,20.63
2018-09-08T09:20:10.194Z,20.87
2018-09-08T09:22:49.886Z,19.37
2018-09-08T09:25:18.891Z,17.87
2018-09-08T09:27:48.727Z,16.70
2018-09-08T09:30:18.258Z,18.50
2018-09-08T09:32:47.016Z,18.77
2018-09-08T09:35:18.001Z,16.40
2018-09-08T09:37:46.775Z,18.50
2018-09-08T09:40:16.520Z,16.47
2018-09-08T09:42:45.349Z,15.13
2018-09-08T09:45:14.114Z,14.73
2018-09-08T09:47:43.709Z,14.87
2018-09-08T09:50:13.218Z,14.57
2018-09-08T09:52:42.303Z,11.03
2018-09-08T09:55:11.132Z,11.23
2018-09-08T09:57:40.095Z,11.10
2018-09-08T10:00:10.049Z,9.93
2018-09-08T10:02:40.855Z,10.77
2018-09-08T10:05:12.088Z,11.37
2018-09-08T10:07:41.076Z,12.27
2018-09-08T10:10:12.114Z,10.03
2018-09-08T10:12:41.065Z,14.73
2018-09-08T10:15:10.447Z,19.37
2018-09-08T10:17:40.049Z,10.50
2018-09-08T10:20:11.329Z,42.03
2018-09-08T10:22:40.962Z,8.40
2018-09-08T10:25:11.704Z,8.80
2018-09-08T10:27:40.857Z,9.97
2018-09-08T10:30:10.764Z,11.03
2018-09-08T10:32:39.755Z,9.27
2018-09-08T10:35:08.752Z,11.90
2018-09-08T10:37:37.762Z,15.77
2018-09-08T10:40:07.693Z,10.50
2018-09-08T10:42:36.502Z,9.70
2018-09-08T10:45:05.729Z,9.77
2018-09-08T10:47:34.618Z,10.63
2018-09-08T10:50:03.342Z,9.87
2018-09-08T10:52:33.473Z,12.13
2018-09-08T10:55:02.480Z,9.30
2018-09-08T10:57:33.010Z,9.33
2018-09-08T11:00:02.841Z,8.13
2018-09-08T11:02:32.245Z,7.90
2018-09-08T11:05:01.547Z,9.30
2018-09-08T11:07:30.765Z,8.07
2018-09-08T11:10:00.084Z,8.87
2018-09-08T11:12:29.157Z,6.43
2018-09-08T11:14:58.640Z,6.33
2018-09-08T11:17:27.306Z,7.20
2018-09-08T11:19:56.433Z,6.93
2018-09-08T11:22:25.338Z,6.53
2018-09-08T11:24:54.285Z,6.87
2018-09-08T11:27:23.016Z,8.13
2018-09-08T11:29:51.657Z,6.63
2018-09-08T11:32:20.728Z,14.63
2018-09-08T11:34:49.368Z,8.70
2018-09-08T11:37:18.647Z,7.70
2018-09-08T11:39:47.476Z,8.53
2018-09-08T11:42:16.177Z,6.97
2018-09-08T11:44:44.950Z,7.53
2018-09-08T11:47:13.727Z,10.27
2018-09-08T11:49:42.429Z,6.20
2018-09-08T11:52:11.169Z,7.40
2018-09-08T11:54:40.163Z,7.03
2018-09-08T11:57:08.957Z,7.33
2018-09-08T11:59:37.609Z,6.40
2018-09-08T12:02:06.548Z,5.87
2018-09-08T12:04:35.425Z,5.60
2018-09-08T12:07:04.134Z,5.57
2018-09-08T12:09:34.155Z,5.47
2018-09-08T12:12:02.882Z,6.03
2018-09-08T12:14:31.774Z,5.83
2018-09-08T12:17:00.645Z,7.73
2018-09-08T12:19:29.546Z,5.53
2018-09-08T12:21:59.604Z,6.03
2018-09-08T12:24:28.369Z,6.50
2018-09-08T12:26:57.353Z,6.53
2018-09-08T12:29:26.243Z,7.67
2018-09-08T12:31:55.143Z,6.33
2018-09-08T12:34:23.924Z,6.80
2018-09-08T12:36:53.606Z,7.43
2018-09-08T12:39:22.369Z,5.93
2018-09-08T12:41:52.387Z,5.93
2018-09-08T12:44:22.005Z,6.30
2018-09-08T12:46:50.642Z,6.03
2018-09-08T12:49:19.334Z,5.00
2018-09-08T12:51:47.976Z,6.17
2018-09-08T12:54:16.806Z,5.37
2018-09-08T12:56:47.250Z,4.83
2018-09-08T12:59:16.140Z,4.83
2018-09-08T13:01:44.747Z,6.47
2018-09-08T13:04:13.510Z,4.17
2018-09-08T13:06:42.332Z,4.80
2018-09-08T13:09:11.025Z,5.30
2018-09-08T13:11:39.769Z,5.23
2018-09-08T13:14:08.486Z,4.90
2018-09-08T13:16:37.173Z,5.47
2018-09-08T13:19:06.142Z,5.20
2018-09-08T13:21:35.875Z,5.77
2018-09-08T13:24:04.553Z,4.63
2018-09-08T13:26:36.346Z,4.30
2018-09-08T13:29:04.977Z,4.93
2018-09-08T13:31:33.657Z,4.80
2018-09-08T13:34:02.410Z,5.03
2018-09-08T13:36:31.211Z,5.47
2018-09-08T13:39:00.092Z,5.20
2018-09-08T13:41:28.771Z,5.10
2018-09-08T13:43:57.433Z,6.13
2018-09-08T13:46:26.198Z,4.60
2018-09-08T13:48:54.882Z,4.00
2018-09-08T13:51:24.550Z,4.10
2018-09-08T13:53:53.301Z,4.50
2018-09-08T13:56:21.989Z,6.05
2018-09-08T13:58:50.749Z,6.17
2018-09-08T14:01:19.447Z,5.47
2018-09-08T14:03:48.733Z,4.97
2018-09-08T14:06:17.366Z,4.83
2018-09-08T14:08:46.103Z,6.33
2018-09-08T14:11:15.111Z,5.37
2018-09-08T14:13:43.832Z,4.60
2018-09-08T14:16:13.546Z,4.80
2018-09-08T14:18:42.303Z,6.40
2018-09-08T14:21:11.064Z,4.67
2018-09-08T14:23:39.775Z,5.03
2018-09-08T14:26:08.382Z,6.10
2018-09-08T14:28:37.102Z,5.60
2018-09-08T14:31:05.857Z,5.97
2018-09-08T14:33:34.538Z,5.15
2018-09-08T14:36:04.386Z,7.53
2018-09-08T14:38:32.957Z,4.63
2018-09-08T14:41:02.156Z,4.80
2018-09-08T14:43:30.842Z,4.17
2018-09-08T14:45:59.676Z,5.50
2018-09-08T14:48:28.344Z,4.50
2018-09-08T14:50:56.999Z,4.67
2018-09-08T14:53:25.694Z,4.70
2018-09-08T14:55:54.371Z,4.80
2018-09-08T14:58:23.096Z,8.00
2018-09-08T15:00:51.784Z,4.73
2018-09-08T15:03:20.504Z,4.67
2018-09-08T15:05:49.284Z,5.10
2018-09-08T15:08:17.970Z,7.97
2018-09-08T15:10:46.651Z,8.90
2018-09-08T15:13:15.363Z,5.57
2018-09-08T15:15:44.366Z,5.63
2018-09-08T15:18:13.034Z,6.10
2018-09-08T15:20:41.700Z,7.03
2018-09-08T15:23:10.334Z,4.67
2018-09-08T15:25:39.010Z,5.80
2018-09-08T15:28:07.706Z,6.20
2018-09-08T15:30:36.482Z,5.43
2018-09-08T15:33:05.161Z,5.27
2018-09-08T15:35:33.765Z,4.60
2018-09-08T15:38:02.661Z,4.20
2018-09-08T15:40:31.405Z,8.00
2018-09-08T15:43:00.049Z,5.27
2018-09-08T15:45:28.746Z,6.60
2018-09-08T15:47:59.166Z,6.43
2018-09-08T15:50:27.982Z,5.10
2018-09-08T15:52:56.690Z,5.17
2018-09-08T15:55:25.566Z,4.40
2018-09-08T15:57:54.371Z,7.33
2018-09-08T16:00:23.159Z,7.27
2018-09-08T16:02:51.910Z,5.80
2018-09-08T16:05:20.603Z,5.17
2018-09-08T16:07:49.306Z,7.23
2018-09-08T16:10:17.962Z,6.70
2018-09-08T16:12:46.578Z,4.70
2018-09-08T16:15:15.248Z,5.27
2018-09-08T16:17:44.588Z,7.50
2018-09-08T16:20:14.357Z,5.97
2018-09-08T16:22:43.112Z,4.10
2018-09-08T16:25:11.864Z,4.67
2018-09-08T16:27:40.478Z,6.10
2018-09-08T16:30:10.056Z,4.30
2018-09-08T16:32:38.814Z,4.10
2018-09-08T16:35:07.744Z,3.73
2018-09-08T16:37:36.353Z,4.57
2018-09-08T16:40:05.751Z,11.88
2018-09-08T16:42:34.755Z,9.07
2018-09-08T16:45:04.517Z,8.27
2018-09-08T16:47:33.209Z,9.77
2018-09-08T16:50:03.026Z,10.17
2018-09-08T16:52:31.601Z,9.20
2018-09-08T16:55:00.676Z,6.37
2018-09-08T16:57:29.705Z,9.37
2018-09-08T16:59:59.397Z,11.27
2018-09-08T17:02:28.287Z,10.77
2018-09-08T17:04:57.046Z,9.80
2018-09-08T17:07:25.742Z,11.10
2018-09-08T17:09:54.675Z,9.47
2018-09-08T17:12:23.531Z,12.67
2018-09-08T17:14:52.218Z,11.20
2018-09-08T17:17:21.062Z,13.03
2018-09-08T17:19:50.815Z,10.83
2018-09-08T17:22:19.470Z,9.50
2018-09-08T17:24:48.342Z,9.27
2018-09-08T17:27:17.098Z,9.07
2018-09-08T17:29:45.987Z,9.03
2018-09-08T17:32:14.740Z,9.80
2018-09-08T17:34:43.487Z,8.43
2018-09-08T17:37:12.243Z,10.37
2018-09-08T17:39:40.978Z,11.33
2018-09-08T17:42:10.088Z,11.00
2018-09-08T17:44:38.953Z,8.80
2018-09-08T17:47:07.869Z,14.23
2018-09-08T17:49:36.985Z,54.20
2018-09-08T17:52:06.917Z,23.70
2018-09-08T17:54:35.479Z,10.87
2018-09-08T17:57:04.171Z,12.03
2018-09-08T17:59:32.881Z,10.47
2018-09-08T18:02:01.688Z,11.77
2018-09-08T18:04:30.459Z,11.00
2018-09-08T18:06:59.294Z,10.00
2018-09-08T18:09:27.938Z,13.03
2018-09-08T18:11:56.758Z,14.00
2018-09-08T18:14:25.390Z,11.53
2018-09-08T18:16:54.034Z,11.87
2018-09-08T18:19:23.855Z,12.53
2018-09-08T18:21:52.591Z,10.37
2018-09-08T18:24:21.198Z,13.83
2018-09-08T18:26:50.014Z,17.00
2018-09-08T18:29:18.757Z,12.60
2018-09-08T18:31:47.449Z,15.83
2018-09-08T18:34:16.078Z,17.17
2018-09-08T18:36:44.766Z,20.20
2018-09-08T18:39:13.676Z,17.17
2018-09-08T18:41:42.403Z,18.07
2018-09-08T18:44:11.218Z,21.43
2018-09-08T18:46:39.934Z,14.30
2018-09-08T18:49:08.701Z,14.17
2018-09-08T18:51:39.273Z,13.33
2018-09-08T18:54:08.135Z,10.63
2018-09-08T18:56:36.921Z,10.77
2018-09-08T18:59:05.557Z,10.93
2018-09-08T19:01:34.436Z,13.47
2018-09-08T19:04:03.311Z,13.57
2018-09-08T19:06:32.015Z,11.93
2018-09-08T19:09:00.699Z,13.93
2018-09-08T19:11:29.420Z,12.60
2018-09-08T19:13:58.075Z,19.13
2018-09-08T19:16:26.866Z,15.60
2018-09-08T19:18:55.601Z,17.60
2018-09-08T19:21:24.442Z,16.93
2018-09-08T19:23:58.302Z,15.70
2018-09-08T19:26:27.077Z,17.57
2018-09-08T19:29:01.506Z,19.63
2018-09-08T19:31:31.195Z,23.33
2018-09-08T19:33:59.849Z,18.43
2018-09-08T19:36:28.616Z,16.00
2018-09-08T19:38:57.394Z,16.57
2018-09-08T19:41:26.530Z,15.43
2018-09-08T19:43:55.337Z,19.03
2018-09-08T19:46:29.335Z,15.80
2018-09-08T19:48:58.495Z,19.90
2018-09-08T19:51:27.413Z,22.40
2018-09-08T19:53:56.253Z,22.07
2018-09-08T19:56:30.142Z,21.33
2018-09-08T19:58:59.587Z,22.13
2018-09-08T20:01:28.960Z,25.33
2018-09-08T20:03:58.537Z,24.87
2018-09-08T20:06:27.707Z,33.13
2018-09-08T20:08:56.454Z,23.57
2018-09-08T20:11:25.179Z,18.33
2018-09-08T20:13:53.800Z,17.67
2018-09-08T20:16:22.800Z,18.47
2018-09-08T20:18:51.474Z,12.63
2018-09-08T20:21:20.746Z,14.23
2018-09-08T20:23:49.347Z,11.87
2018-09-08T20:26:18.114Z,11.30
2018-09-08T20:28:47.629Z,11.70
2018-09-08T20:31:16.227Z,11.57
2018-09-08T20:33:44.988Z,13.57
2018-09-08T20:36:13.695Z,15.23
2018-09-08T20:38:42.335Z,11.57
2018-09-08T20:41:11.014Z,11.57
2018-09-08T20:43:39.765Z,11.00
2018-09-08T20:46:08.534Z,11.30
2018-09-08T20:48:37.172Z,11.13
2018-09-08T20:51:05.803Z,11.27
2018-09-08T20:53:34.513Z,12.77
2018-09-08T20:56:03.320Z,12.70
2018-09-08T20:58:32.013Z,13.37
2018-09-08T21:01:00.708Z,15.63
2018-09-08T21:03:29.354Z,17.10
2018-09-08T21:05:58.049Z,15.57
2018-09-08T21:08:26.764Z,15.57
2018-09-08T21:10:55.501Z,18.63
2018-09-08T21:13:24.383Z,14.07
2018-09-08T21:15:53.014Z,15.47
2018-09-08T21:18:21.866Z,17.17
2018-09-08T21:20:50.465Z,14.10
2018-09-08T21:23:19.223Z,15.07
2018-09-08T21:25:47.878Z,14.23
2018-09-08T21:28:16.598Z,13.57
2018-09-08T21:30:45.859Z,11.97
2018-09-08T21:33:14.600Z,16.10
2018-09-08T21:35:44.562Z,16.10
2018-09-08T21:38:13.837Z,19.47
2018-09-08T21:40:43.132Z,16.20
2018-09-08T21:43:11.834Z,17.40
2018-09-08T21:45:40.714Z,16.40
2018-09-08T21:48:09.585Z,18.97
2018-09-08T21:50:38.229Z,16.40
2018-09-08T21:53:06.902Z,20.23
2018-09-08T21:55:35.685Z,18.03
2018-09-08T21:58:04.533Z,18.97
2018-09-08T22:00:33.449Z,18.57
2018-09-08T22:03:02.101Z,19.07
2018-09-08T22:05:31.086Z,18.10
2018-09-08T22:07:59.840Z,15.57
2018-09-08T22:10:28.525Z,15.87
2018-09-08T22:12:57.218Z,20.53
2018-09-08T22:15:25.830Z,19.67
2018-09-08T22:17:54.442Z,20.67
2018-09-08T22:20:23.226Z,14.77
2018-09-08T22:22:51.958Z,16.60
2018-09-08T22:25:20.577Z,17.23
2018-09-08T22:27:50.134Z,16.63
2018-09-08T22:30:18.842Z,16.17
2018-09-08T22:32:47.609Z,15.83
2018-09-08T22:35:16.913Z,15.73
2018-09-08T22:37:45.614Z,17.37
2018-09-08T22:40:15.109Z,16.77
2018-09-08T22:42:43.781Z,16.97
2018-09-08T22:45:12.547Z,19.53
2018-09-08T22:47:41.151Z,15.87
2018-09-08T22:50:09.833Z,15.30
2018-09-08T22:52:38.553Z,13.23
2018-09-08T22:55:07.389Z,14.37
2018-09-08T22:57:36.107Z,14.57
2018-09-08T23:00:06.173Z,14.47
2018-09-08T23:02:35.007Z,13.80
2018-09-08T23:05:03.765Z,11.20
2018-09-08T23:07:33.248Z,13.90
2018-09-08T23:10:02.608Z,14.43
2018-09-08T23:12:33.358Z,12.63
2018-09-08T23:15:02.625Z,11.20
2018-09-08T23:17:32.345Z,12.03
2018-09-08T23:20:01.278Z,11.67
2018-09-08T23:22:30.009Z,11.33
2018-09-08T23:24:59.529Z,11.00
2018-09-08T23:27:28.218Z,12.23
2018-09-08T23:29:57.461Z,10.47
2018-09-08T23:32:26.108Z,10.43
2018-09-08T23:34:54.770Z,11.70
2018-09-08T23:37:23.462Z,12.37
2018-09-08T23:39:52.070Z,11.27
2018-09-08T23:42:20.923Z,11.03
2018-09-08T23:44:49.614Z,11.80
2018-09-08T23:47:18.249Z,10.47
2018-09-08T23:49:46.950Z,10.37
2018-09-08T23:52:15.729Z,9.20
2018-09-08T23:54:44.529Z,10.00
2018-09-08T23:57:13.259Z,9.93
2018-09-08T23:59:41.901Z,10.63
